createdAt,value
2019-01-28T00:02:09.041Z,5.11
2019-01-28T00:04:39.588Z,5.04
2019-01-28T00:07:09.977Z,5.08
2019-01-28T00:09:40.008Z,5.03
2019-01-28T00:12:10.588Z,5.03
2019-01-28T00:14:40.401Z,5.16
2019-01-28T00:17:10.506Z,5.14
2019-01-28T00:19:40.463Z,5.13
2019-01-28T00:22:10.911Z,5.10
2019-01-28T00:24:40.935Z,5.14
2019-01-28T00:27:12.099Z,5.03
2019-01-28T00:29:42.370Z,5.07
2019-01-28T00:32:12.246Z,5.07
2019-01-28T00:34:42.399Z,5.04
2019-01-28T00:37:12.570Z,5.06
2019-01-28T00:39:42.537Z,5.07
2019-01-28T00:42:12.348Z,5.04
2019-01-28T00:44:42.230Z,5.05
2019-01-28T00:47:12.246Z,5.04
2019-01-28T00:49:42.469Z,5.13
2019-01-28T00:52:12.333Z,5.06
2019-01-28T00:54:42.331Z,5.08
2019-01-28T00:57:14.020Z,5.15
2019-01-28T00:59:44.228Z,5.24
2019-01-28T01:02:14.196Z,5.27
2019-01-28T01:04:44.482Z,5.31
2019-01-28T01:07:14.418Z,5.24
2019-01-28T01:09:44.349Z,5.26
2019-01-28T01:12:14.532Z,5.33
2019-01-28T01:14:44.475Z,5.26
2019-01-28T01:17:14.445Z,5.36
2019-01-28T01:19:44.495Z,5.33
2019-01-28T01:22:14.358Z,5.40
2019-01-28T01:24:44.511Z,5.41
2019-01-28T01:27:14.374Z,5.37
2019-01-28T01:29:44.204Z,5.39
2019-01-28T01:32:14.449Z,5.35
2019-01-28T01:34:44.415Z,5.16
2019-01-28T01:37:14.235Z,5.47
2019-01-28T01:39:44.462Z,5.47
2019-01-28T01:42:14.489Z,5.38
2019-01-28T01:44:44.438Z,5.41
2019-01-28T01:47:14.581Z,5.50
2019-01-28T01:49:44.430Z,5.57
2019-01-28T01:52:14.224Z,5.55
2019-01-28T01:54:44.346Z,5.51
2019-01-28T01:57:15.465Z,5.52
2019-01-28T01:59:45.347Z,5.49
2019-01-28T02:02:15.634Z,5.43
2019-01-28T02:04:45.579Z,5.25
2019-01-28T02:07:17.463Z,5.23
2019-01-28T02:09:47.745Z,5.21
2019-01-28T02:12:19.234Z,5.20
2019-01-28T02:14:49.028Z,5.16
2019-01-28T02:17:19.258Z,5.10
2019-01-28T02:19:52.627Z,5.01
2019-01-28T02:22:22.751Z,4.98
2019-01-28T02:24:54.178Z,4.88
2019-01-28T02:27:25.007Z,4.78
2019-01-28T02:29:55.474Z,4.65
2019-01-28T02:32:25.458Z,4.59
2019-01-28T02:34:56.550Z,4.52
2019-01-28T02:37:26.646Z,4.46
2019-01-28T02:39:59.436Z,4.42
2019-01-28T02:42:30.577Z,4.36
2019-01-28T02:45:00.443Z,4.29
2019-01-28T02:47:30.373Z,4.18
2019-01-28T02:50:01.769Z,4.20
2019-01-28T02:52:31.580Z,4.21
2019-01-28T02:55:01.355Z,4.16
2019-01-28T02:57:32.151Z,3.56
2019-01-28T03:00:02.125Z,3.95
2019-01-28T03:02:31.939Z,3.83
2019-01-28T03:05:02.914Z,3.83
2019-01-28T03:07:32.815Z,3.90
2019-01-28T03:10:05.955Z,3.89
2019-01-28T03:12:36.387Z,3.94
2019-01-28T03:15:06.954Z,3.84
2019-01-28T03:17:36.777Z,3.86
2019-01-28T03:20:08.177Z,3.86
2019-01-28T03:22:38.428Z,3.86
2019-01-28T03:25:09.294Z,3.84
2019-01-28T03:27:40.437Z,3.91
2019-01-28T03:30:13.452Z,3.95
2019-01-28T03:32:43.788Z,3.90
2019-01-28T03:35:16.646Z,3.91
2019-01-28T03:37:46.431Z,3.97
2019-01-28T03:40:18.543Z,4.00
2019-01-28T03:42:48.473Z,3.96
2019-01-28T03:45:22.582Z,3.95
2019-01-28T03:47:52.987Z,3.91
2019-01-28T03:50:33.085Z,3.95
2019-01-28T03:53:03.042Z,4.02
2019-01-28T03:55:32.923Z,4.05
2019-01-28T03:58:03.484Z,4.05
2019-01-28T04:00:33.820Z,4.00
2019-01-28T04:03:04.194Z,4.01
2019-01-28T04:05:34.445Z,4.05
2019-01-28T04:08:05.669Z,4.06
2019-01-28T04:10:35.672Z,4.04
2019-01-28T04:13:05.953Z,4.06
2019-01-28T04:15:37.349Z,4.09
2019-01-28T04:18:07.375Z,4.10
2019-01-28T04:20:38.674Z,4.08
2019-01-28T04:23:09.255Z,4.12
2019-01-28T04:25:39.583Z,4.08
2019-01-28T04:28:10.739Z,4.11
2019-01-28T04:30:40.775Z,4.16
2019-01-28T04:33:11.221Z,4.15
2019-01-28T04:35:41.040Z,4.14
2019-01-28T04:38:10.980Z,4.10
2019-01-28T04:40:41.244Z,4.13
2019-01-28T04:43:11.078Z,4.05
2019-01-28T04:45:40.982Z,4.05
2019-01-28T04:48:10.852Z,4.02
2019-01-28T04:50:40.771Z,3.96
2019-01-28T04:53:10.549Z,3.91
2019-01-28T04:55:41.235Z,3.91
2019-01-28T04:58:12.419Z,4.01
2019-01-28T05:00:42.294Z,4.08
2019-01-28T05:03:15.937Z,4.23
2019-01-28T05:05:45.855Z,4.36
2019-01-28T05:08:15.655Z,4.45
2019-01-28T05:10:47.748Z,4.45
2019-01-28T05:13:17.583Z,4.49
2019-01-28T05:15:52.299Z,4.60
2019-01-28T05:18:22.247Z,4.64
2019-01-28T05:20:53.194Z,4.68
2019-01-28T05:23:24.356Z,4.69
2019-01-28T05:25:54.166Z,4.75
2019-01-28T05:28:24.034Z,4.72
2019-01-28T05:30:53.934Z,4.73
2019-01-28T05:33:23.884Z,4.73
2019-01-28T05:35:53.712Z,4.80
2019-01-28T05:38:24.836Z,4.80
2019-01-28T05:40:55.092Z,4.76
2019-01-28T05:43:26.155Z,4.77
2019-01-28T05:45:56.118Z,4.75
2019-01-28T05:48:26.929Z,4.73
2019-01-28T05:50:56.716Z,4.72
2019-01-28T05:53:26.915Z,4.73
2019-01-28T05:55:57.952Z,4.73
2019-01-28T05:58:27.942Z,4.66
2019-01-28T06:00:59.052Z,4.63
2019-01-28T06:03:29.191Z,4.61
2019-01-28T06:06:00.890Z,4.55
2019-01-28T06:08:30.887Z,4.59
2019-01-28T06:11:05.052Z,4.62
2019-01-28T06:13:35.090Z,4.71
2019-01-28T06:16:06.448Z,4.78
2019-01-28T06:18:37.489Z,4.89
2019-01-28T06:21:08.736Z,4.45
2019-01-28T06:23:39.716Z,5.04
2019-01-28T06:26:09.717Z,5.00
2019-01-28T06:28:43.188Z,5.05
2019-01-28T06:31:15.536Z,5.10
2019-01-28T06:33:45.513Z,5.12
2019-01-28T06:36:16.138Z,5.23
2019-01-28T06:38:48.811Z,5.27
2019-01-28T06:41:18.630Z,5.38
2019-01-28T06:43:48.438Z,5.39
2019-01-28T06:46:18.283Z,5.39
2019-01-28T06:48:48.138Z,5.36
2019-01-28T06:51:18.348Z,5.39
2019-01-28T06:53:48.235Z,5.39
2019-01-28T06:56:21.187Z,5.40
2019-01-28T06:58:51.012Z,5.35
2019-01-28T07:01:20.980Z,5.29
2019-01-28T07:03:53.927Z,5.34
2019-01-28T07:06:25.212Z,5.33
2019-01-28T07:08:56.385Z,5.40
2019-01-28T07:11:27.205Z,5.40
2019-01-28T07:13:57.077Z,5.47
2019-01-28T07:16:27.044Z,5.44
2019-01-28T07:18:58.004Z,5.49
2019-01-28T07:21:29.307Z,5.40
2019-01-28T07:23:59.227Z,5.40
2019-01-28T07:26:29.527Z,5.40
2019-01-28T07:29:02.884Z,5.40
2019-01-28T07:31:33.018Z,5.36
2019-01-28T07:34:03.258Z,5.39
2019-01-28T07:36:33.215Z,5.49
2019-01-28T07:39:03.893Z,5.45
2019-01-28T07:41:34.153Z,5.53
2019-01-28T07:44:04.332Z,5.63
2019-01-28T07:46:38.266Z,5.60
2019-01-28T07:49:08.367Z,5.47
2019-01-28T07:51:38.444Z,5.55
2019-01-28T07:54:10.040Z,5.63
2019-01-28T07:56:43.149Z,5.79
2019-01-28T07:59:14.391Z,5.95
2019-01-28T08:01:44.226Z,5.80
2019-01-28T08:04:14.393Z,5.84
2019-01-28T08:06:44.374Z,5.93
2019-01-28T08:09:15.407Z,6.04
2019-01-28T08:11:45.479Z,6.29
2019-01-28T08:14:15.392Z,6.29
2019-01-28T08:16:45.446Z,6.34
2019-01-28T08:19:15.329Z,6.39
2019-01-28T08:21:45.442Z,6.32
2019-01-28T08:24:16.555Z,6.29
2019-01-28T08:26:46.882Z,6.29
2019-01-28T08:29:16.817Z,6.10
2019-01-28T08:31:47.232Z,6.11
2019-01-28T08:34:17.300Z,6.08
2019-01-28T08:36:47.157Z,5.96
2019-01-28T08:39:17.521Z,5.95
2019-01-28T08:41:48.244Z,5.90
2019-01-28T08:44:18.762Z,5.91
2019-01-28T08:46:49.144Z,5.99
2019-01-28T08:49:19.324Z,6.05
2019-01-28T08:51:49.169Z,6.21
2019-01-28T08:54:22.348Z,6.26
2019-01-28T08:56:52.761Z,6.20
2019-01-28T08:59:22.796Z,6.22
2019-01-28T09:01:52.667Z,6.30
2019-01-28T09:04:23.247Z,6.31
2019-01-28T09:06:53.133Z,6.31
2019-01-28T09:09:23.045Z,6.45
2019-01-28T09:11:53.835Z,6.59
2019-01-28T09:14:23.649Z,6.59
2019-01-28T09:16:53.943Z,6.23
2019-01-28T09:19:23.816Z,6.37
2019-01-28T09:21:55.284Z,6.37
2019-01-28T09:24:25.786Z,6.40
2019-01-28T09:26:55.782Z,6.30
2019-01-28T09:29:25.708Z,6.31
2019-01-28T09:31:55.979Z,6.36
2019-01-28T09:34:26.142Z,6.36
2019-01-28T09:36:57.368Z,6.36
2019-01-28T09:39:27.816Z,6.30
2019-01-28T09:41:57.671Z,6.13
2019-01-28T09:44:28.471Z,6.11
2019-01-28T09:46:58.868Z,6.15
2019-01-28T09:49:28.851Z,6.15
2019-01-28T09:51:59.610Z,6.13
2019-01-28T09:54:30.013Z,6.03
2019-01-28T09:57:01.658Z,6.23
2019-01-28T09:59:35.112Z,6.36
2019-01-28T10:02:06.258Z,6.33
2019-01-28T10:04:38.217Z,6.33
2019-01-28T10:07:08.547Z,6.45
2019-01-28T10:09:38.501Z,6.59
2019-01-28T10:12:09.280Z,6.59
2019-01-28T10:14:41.937Z,6.55
2019-01-28T10:17:15.373Z,6.59
2019-01-28T10:19:46.090Z,6.59
2019-01-28T10:22:18.000Z,6.34
2019-01-28T10:24:47.980Z,6.34
2019-01-28T10:27:23.208Z,6.82
2019-01-28T10:29:53.310Z,6.82
2019-01-28T10:32:23.513Z,6.78
2019-01-28T10:34:54.622Z,6.78
2019-01-28T10:37:25.658Z,6.78
2019-01-28T10:39:57.546Z,6.57
2019-01-28T10:42:29.533Z,6.57
2019-01-28T10:44:59.550Z,6.62
2019-01-28T10:47:30.256Z,6.63
2019-01-28T10:50:04.330Z,6.63
2019-01-28T10:52:38.149Z,6.71
2019-01-28T10:55:10.133Z,6.86
2019-01-28T10:57:40.775Z,6.95
2019-01-28T11:00:17.817Z,7.00
2019-01-28T11:02:48.243Z,6.98
2019-01-28T11:05:20.899Z,6.98
2019-01-28T11:07:51.087Z,6.84
2019-01-28T11:10:26.055Z,6.89
2019-01-28T11:12:58.055Z,6.89
2019-01-28T11:15:30.364Z,6.96
2019-01-28T11:18:03.690Z,6.93
2019-01-28T11:20:34.595Z,6.67
2019-01-28T11:23:04.996Z,6.59
2019-01-28T11:25:36.996Z,6.33
2019-01-28T11:28:11.030Z,6.31
2019-01-28T11:30:54.964Z,6.47
2019-01-28T11:33:28.428Z,6.47
2019-01-28T11:36:05.466Z,6.32
2019-01-28T11:38:33.154Z,6.55
2019-01-28T11:41:07.354Z,6.48
2019-01-28T11:43:39.965Z,6.48
2019-01-28T11:46:15.111Z,6.44
2019-01-28T11:48:48.429Z,6.44
2019-01-28T11:51:21.874Z,6.81
2019-01-28T11:53:52.451Z,6.81
2019-01-28T11:56:23.033Z,7.01
2019-01-28T11:58:57.546Z,7.15
2019-01-28T12:01:32.527Z,7.25
2019-01-28T12:04:04.599Z,7.28
2019-01-28T12:06:35.781Z,7.28
2019-01-28T12:09:12.732Z,7.29
2019-01-28T12:11:43.599Z,7.42
2019-01-28T12:14:17.930Z,7.53
2019-01-28T12:16:49.261Z,7.58
2019-01-28T12:19:21.309Z,7.66
2019-01-28T12:21:51.847Z,7.73
2019-01-28T12:24:21.962Z,7.59
2019-01-28T12:26:53.359Z,7.58
2019-01-28T12:29:27.554Z,7.67
2019-01-28T12:32:01.141Z,7.89
2019-01-28T12:34:32.767Z,8.05
2019-01-28T12:37:04.472Z,8.03
2019-01-28T12:39:39.488Z,7.93
2019-01-28T12:42:14.648Z,7.67
2019-01-28T12:44:46.279Z,7.84
2019-01-28T12:47:16.694Z,7.87
2019-01-28T12:49:47.597Z,7.60
2019-01-28T12:52:19.001Z,7.45
2019-01-28T12:54:50.750Z,7.61
2019-01-28T12:57:21.886Z,7.45
2019-01-28T12:59:52.719Z,7.49
2019-01-28T13:02:25.471Z,7.32
2019-01-28T13:04:57.502Z,7.24
2019-01-28T13:07:30.301Z,7.12
2019-01-28T13:10:01.431Z,7.16
2019-01-28T13:12:33.933Z,7.16
2019-01-28T13:15:10.468Z,7.17
2019-01-28T13:17:42.355Z,7.11
2019-01-28T13:20:18.665Z,7.13
2019-01-28T13:22:49.868Z,6.92
2019-01-28T13:25:24.403Z,7.06
2019-01-28T13:27:55.747Z,7.32
2019-01-28T13:30:32.343Z,7.50
2019-01-28T13:33:05.964Z,7.44
2019-01-28T13:35:40.184Z,7.33
2019-01-28T13:38:11.422Z,7.16
2019-01-28T13:40:45.285Z,7.20
2019-01-28T13:43:24.991Z,7.46
2019-01-28T13:45:58.041Z,7.44
2019-01-28T13:48:30.298Z,7.36
2019-01-28T13:51:01.344Z,7.14
2019-01-28T13:53:36.981Z,7.02
2019-01-28T13:56:08.111Z,7.05
2019-01-28T13:58:41.713Z,6.93
2019-01-28T14:01:15.080Z,5.99
2019-01-28T14:03:45.573Z,6.91
2019-01-28T14:06:17.891Z,6.89
2019-01-28T14:08:49.099Z,6.96
2019-01-28T14:11:22.907Z,7.03
2019-01-28T14:13:54.905Z,7.03
2019-01-28T14:16:27.719Z,6.73
2019-01-28T14:19:15.113Z,6.73
2019-01-28T14:21:52.969Z,6.45
2019-01-28T14:24:31.561Z,6.45
2019-01-28T14:27:12.766Z,6.26
2019-01-28T14:30:03.198Z,6.34
2019-01-28T14:32:31.021Z,6.36
2019-01-28T14:35:15.035Z,6.33
2019-01-28T14:37:52.508Z,6.18
2019-01-28T14:40:31.519Z,6.03
2019-01-28T14:43:03.935Z,5.86
2019-01-28T14:45:35.948Z,5.86
2019-01-28T14:48:08.069Z,5.77
2019-01-28T14:50:42.084Z,5.78
2019-01-28T14:53:15.961Z,5.68
2019-01-28T14:55:53.777Z,5.51
2019-01-28T14:58:27.591Z,5.48
2019-01-28T15:01:03.490Z,5.33
2019-01-28T15:03:52.181Z,5.32
2019-01-28T15:06:25.323Z,5.33
2019-01-28T15:09:04.006Z,5.18
2019-01-28T15:11:37.592Z,5.09
2019-01-28T15:14:14.148Z,5.00
2019-01-28T15:16:55.005Z,4.97
2019-01-28T15:19:26.972Z,4.84
2019-01-28T15:21:59.861Z,4.94
2019-01-28T15:24:30.657Z,4.75
2019-01-28T15:27:02.291Z,4.82
2019-01-28T15:29:46.322Z,4.90
2019-01-28T15:32:18.695Z,4.91
2019-01-28T15:34:51.228Z,4.77
2019-01-28T15:37:26.325Z,4.80
2019-01-28T15:40:01.182Z,4.82
2019-01-28T15:42:33.962Z,4.77
2019-01-28T15:45:13.332Z,4.82
2019-01-28T15:47:45.805Z,4.81
2019-01-28T15:50:19.822Z,4.83
2019-01-28T15:52:53.097Z,4.88
2019-01-28T15:55:32.285Z,4.75
2019-01-28T15:58:05.891Z,4.73
2019-01-28T16:00:38.031Z,4.85
2019-01-28T16:03:12.700Z,4.82
2019-01-28T16:05:44.561Z,4.92
2019-01-28T16:08:18.272Z,4.99
2019-01-28T16:10:54.420Z,5.05
2019-01-28T16:13:30.977Z,5.07
2019-01-28T16:16:12.638Z,5.11
2019-01-28T16:18:44.991Z,5.10
2019-01-28T16:21:19.272Z,5.14
2019-01-28T16:23:52.935Z,5.13
2019-01-28T16:26:29.738Z,5.15
2019-01-28T16:29:01.831Z,5.22
2019-01-28T16:31:33.469Z,5.28
2019-01-28T16:34:07.104Z,5.31
2019-01-28T16:36:39.265Z,5.38
2019-01-28T16:39:12.573Z,5.35
2019-01-28T16:41:43.638Z,5.38
2019-01-28T16:44:16.813Z,5.39
2019-01-28T16:46:49.129Z,5.41
2019-01-28T16:49:20.838Z,5.31
2019-01-28T16:51:52.848Z,5.31
2019-01-28T16:54:29.074Z,5.32
2019-01-28T16:57:03.918Z,4.92
2019-01-28T16:59:35.214Z,5.40
2019-01-28T17:02:15.611Z,5.34
2019-01-28T17:04:46.791Z,5.41
2019-01-28T17:07:18.954Z,5.45
2019-01-28T17:09:51.953Z,5.29
2019-01-28T17:12:23.277Z,5.28
2019-01-28T17:14:56.911Z,5.24
2019-01-28T17:17:34.945Z,5.26
2019-01-28T17:20:10.969Z,5.20
2019-01-28T17:22:42.074Z,5.17
2019-01-28T17:25:14.962Z,4.56
2019-01-28T17:27:51.649Z,5.05
2019-01-28T17:30:29.498Z,4.95
2019-01-28T17:33:03.480Z,4.98
2019-01-28T17:35:39.359Z,4.90
2019-01-28T17:38:13.495Z,4.89
2019-01-28T17:40:55.695Z,4.87
2019-01-28T17:43:38.964Z,4.86
2019-01-28T17:46:11.206Z,4.91
2019-01-28T17:48:45.761Z,4.93
2019-01-28T17:51:25.282Z,4.89
2019-01-28T17:54:00.061Z,4.84
2019-01-28T17:56:33.904Z,4.80
2019-01-28T17:59:12.596Z,4.84
2019-01-28T18:01:44.155Z,4.82
2019-01-28T18:04:25.552Z,4.86
2019-01-28T18:06:59.628Z,4.91
2019-01-28T18:09:36.483Z,4.98
2019-01-28T18:12:12.007Z,5.03
2019-01-28T18:14:43.847Z,5.06
2019-01-28T18:17:20.271Z,5.08
2019-01-28T18:19:52.739Z,5.05
2019-01-28T18:22:43.061Z,5.00
2019-01-28T18:25:23.426Z,5.03
2019-01-28T18:27:54.761Z,4.99
2019-01-28T18:30:46.881Z,4.91
2019-01-28T18:33:23.745Z,4.90
2019-01-28T18:36:11.013Z,4.88
2019-01-28T18:38:46.714Z,4.93
2019-01-28T18:41:22.796Z,4.98
2019-01-28T18:44:17.737Z,5.03
2019-01-28T18:46:56.030Z,5.11
2019-01-28T18:49:42.791Z,5.12
2019-01-28T18:52:16.285Z,5.10
2019-01-28T18:54:51.259Z,5.12
2019-01-28T18:57:33.269Z,5.22
2019-01-28T19:00:11.642Z,5.21
2019-01-28T19:02:47.232Z,5.26
2019-01-28T19:05:45.126Z,5.26
2019-01-28T19:08:38.245Z,5.26
2019-01-28T19:11:36.143Z,5.22
2019-01-28T19:14:20.758Z,5.15
2019-01-28T19:17:19.833Z,5.17
2019-01-28T19:20:22.064Z,5.17
2019-01-28T19:23:02.891Z,5.17
2019-01-28T19:25:35.204Z,5.19
2019-01-28T19:28:06.567Z,5.09
2019-01-28T19:30:38.480Z,5.10
2019-01-28T19:33:12.103Z,5.10
2019-01-28T19:35:43.316Z,5.04
2019-01-28T19:38:16.431Z,5.03
2019-01-28T19:40:50.608Z,5.03
2019-01-28T19:43:26.060Z,4.98
2019-01-28T19:46:01.989Z,5.05
2019-01-28T19:48:41.214Z,5.03
2019-01-28T19:51:17.583Z,4.97
2019-01-28T19:53:49.052Z,4.96
2019-01-28T19:56:23.143Z,4.98
2019-01-28T19:59:00.579Z,5.00
2019-01-28T20:01:31.864Z,4.89
2019-01-28T20:04:03.738Z,4.68
2019-01-28T20:06:36.375Z,4.73
2019-01-28T20:09:17.054Z,4.69
2019-01-28T20:11:54.182Z,4.57
2019-01-28T20:14:28.546Z,4.30
2019-01-28T20:17:10.905Z,4.34
2019-01-28T20:19:46.360Z,3.83
2019-01-28T20:22:17.892Z,4.35
2019-01-28T20:24:49.560Z,4.42
2019-01-28T20:27:20.443Z,4.39
2019-01-28T20:29:52.659Z,4.41
2019-01-28T20:32:25.430Z,4.41
2019-01-28T20:34:56.824Z,4.34
2019-01-28T20:37:28.242Z,4.28
2019-01-28T20:39:58.839Z,4.17
2019-01-28T20:42:29.919Z,4.15
2019-01-28T20:45:01.327Z,4.09
2019-01-28T20:47:32.430Z,4.09
2019-01-28T20:50:05.735Z,3.95
2019-01-28T20:52:38.756Z,3.98
2019-01-28T20:55:11.271Z,3.94
2019-01-28T20:57:42.039Z,3.88
2019-01-28T21:00:17.708Z,3.84
2019-01-28T21:02:49.307Z,3.77
2019-01-28T21:05:23.323Z,3.73
2019-01-28T21:07:53.857Z,3.65
2019-01-28T21:10:26.076Z,3.72
2019-01-28T21:12:58.088Z,3.61
2019-01-28T21:15:29.895Z,3.62
2019-01-28T21:18:00.520Z,3.61
2019-01-28T21:20:31.767Z,3.00
2019-01-28T21:23:02.058Z,3.59
2019-01-28T21:25:34.149Z,3.62
2019-01-28T21:28:05.268Z,3.61
2019-01-28T21:30:36.460Z,3.68
2019-01-28T21:33:07.069Z,3.60
2019-01-28T21:35:51.382Z,3.72
2019-01-28T21:38:29.454Z,3.31
2019-01-28T21:41:00.229Z,3.85
2019-01-28T21:43:33.504Z,3.86
2019-01-28T21:46:22.339Z,3.87
2019-01-28T21:48:53.807Z,3.90
2019-01-28T21:51:25.251Z,3.97
2019-01-28T21:53:55.766Z,3.97
2019-01-28T21:56:28.383Z,3.97
2019-01-28T21:59:02.499Z,3.94
2019-01-28T22:01:34.727Z,4.02
2019-01-28T22:04:06.420Z,4.04
2019-01-28T22:06:37.647Z,4.07
2019-01-28T22:09:10.961Z,4.07
2019-01-28T22:11:49.702Z,4.02
2019-01-28T22:14:21.096Z,4.05
2019-01-28T22:16:52.963Z,3.96
2019-01-28T22:19:25.081Z,3.94
2019-01-28T22:21:59.323Z,3.99
2019-01-28T22:24:31.866Z,3.90
2019-01-28T22:27:05.039Z,3.85
2019-01-28T22:29:37.147Z,3.87
2019-01-28T22:32:08.614Z,3.92
2019-01-28T22:34:47.478Z,4.00
2019-01-28T22:37:12.352Z,3.97
2019-01-28T22:39:43.377Z,3.86
2019-01-28T22:42:21.246Z,3.86
2019-01-28T22:44:50.427Z,3.86
2019-01-28T22:47:22.603Z,3.86
2019-01-28T22:49:59.115Z,3.81
2019-01-28T22:52:37.154Z,3.77
2019-01-28T22:55:09.790Z,3.76
2019-01-28T22:57:43.155Z,3.75
2019-01-28T23:00:43.852Z,3.72
2019-01-28T23:03:19.982Z,3.60
2019-01-28T23:05:51.749Z,3.63
2019-01-28T23:08:25.877Z,3.70
2019-01-28T23:10:59.085Z,3.76
2019-01-28T23:13:31.361Z,3.69
2019-01-28T23:16:02.908Z,3.76
2019-01-28T23:18:33.954Z,3.80
2019-01-28T23:21:05.688Z,3.88
2019-01-28T23:23:37.567Z,3.90
2019-01-28T23:26:09.234Z,3.81
2019-01-28T23:28:40.446Z,3.73
2019-01-28T23:31:15.009Z,3.74
2019-01-28T23:33:46.390Z,3.89
2019-01-28T23:36:27.246Z,3.91
2019-01-28T23:39:04.841Z,3.92
2019-01-28T23:41:39.601Z,3.33
2019-01-28T23:44:12.200Z,3.83
2019-01-28T23:46:45.308Z,3.71
2019-01-28T23:49:18.958Z,3.66
2019-01-28T23:51:51.727Z,3.60
2019-01-28T23:54:26.689Z,3.57
2019-01-28T23:56:58.910Z,3.43
2019-01-28T23:59:31.401Z,3.36
